sensor_id;sensor_type;location;lat;lon;timestamp;temperature;humidity
44447;DHT22;30152;52.066;5.358;2023-02-01T08:47:44;7.50;99.90
44447;DHT22;30152;52.066;5.358;2023-02-01T08:50:10;7.50;99.90
44447;DHT22;30152;52.066;5.358;2023-02-01T08:52:35;7.40;99.90
44447;DHT22;30152;52.066;5.358;2023-02-01T09:24:14;8.10;99.90
44447;DHT22;30152;52.066;5.358;2023-02-01T09:26:39;8.20;99.90
44447;DHT22;30152;52.066;5.358;2023-02-01T09:29:05;8.10;99.90
44447;DHT22;30152;52.066;5.358;2023-02-01T09:31:38;8.20;99.90
44447;DHT22;30152;52.066;5.358;2023-02-01T09:34:03;8.70;99.90
44447;DHT22;30152;52.066;5.358;2023-02-01T09:36:29;8.00;99.90
44447;DHT22;30152;52.066;5.358;2023-02-01T09:38:54;7.80;99.90
44447;DHT22;30152;52.066;5.358;2023-02-01T09:41:32;7.90;99.90
44447;DHT22;30152;52.066;5.358;2023-02-01T09:44:15;7.90;99.90
44447;DHT22;30152;52.066;5.358;2023-02-01T09:46:43;7.60;99.90
44447;DHT22;30152;52.066;5.358;2023-02-01T09:49:14;8.90;99.90
44447;DHT22;30152;52.066;5.358;2023-02-01T09:51:45;7.80;99.90
44447;DHT22;30152;52.066;5.358;2023-02-01T09:54:47;7.80;99.90
44447;DHT22;30152;52.066;5.358;2023-02-01T09:57:22;8.10;99.90
44447;DHT22;30152;52.066;5.358;2023-02-01T09:59:59;7.90;99.90
44447;DHT22;30152;52.066;5.358;2023-02-01T10:02:27;7.80;99.90
44447;DHT22;30152;52.066;5.358;2023-02-01T10:04:56;7.80;99.90
44447;DHT22;30152;52.066;5.358;2023-02-01T10:12:53;7.70;99.90
44447;DHT22;30152;52.066;5.358;2023-02-01T10:18:10;7.70;99.90
44447;DHT22;30152;52.066;5.358;2023-02-01T10:23:57;7.70;99.90
44447;DHT22;30152;52.066;5.358;2023-02-01T10:26:36;7.40;99.90
44447;DHT22;30152;52.066;5.358;2023-02-01T10:29:05;7.20;99.90
44447;DHT22;30152;52.066;5.358;2023-02-01T10:31:38;7.40;99.90
44447;DHT22;30152;52.066;5.358;2023-02-01T10:34:17;7.20;99.90
44447;DHT22;30152;52.066;5.358;2023-02-01T10:37:34;7.20;99.90
44447;DHT22;30152;52.066;5.358;2023-02-01T10:39:45;7.50;99.90
44447;DHT22;30152;52.066;5.358;2023-02-01T10:42:11;7.10;99.90
44447;DHT22;30152;52.066;5.358;2023-02-01T10:44:40;7.20;99.90
44447;DHT22;30152;52.066;5.358;2023-02-01T10:47:10;7.10;99.90
44447;DHT22;30152;52.066;5.358;2023-02-01T10:52:33;7.30;99.90
44447;DHT22;30152;52.066;5.358;2023-02-01T10:55:29;7.30;99.90
44447;DHT22;30152;52.066;5.358;2023-02-01T10:58:05;8.50;99.90
44447;DHT22;30152;52.066;5.358;2023-02-01T11:00:41;7.50;99.90
44447;DHT22;30152;52.066;5.358;2023-02-01T11:03:30;7.50;99.90
44447;DHT22;30152;52.066;5.358;2023-02-01T11:05:57;7.70;99.90
44447;DHT22;30152;52.066;5.358;2023-02-01T11:08:23;7.90;99.90
44447;DHT22;30152;52.066;5.358;2023-02-01T11:10:58;7.70;99.90
44447;DHT22;30152;52.066;5.358;2023-02-01T11:13:31;7.70;99.90
44447;DHT22;30152;52.066;5.358;2023-02-01T11:15:59;7.60;99.90
44447;DHT22;30152;52.066;5.358;2023-02-01T11:18:32;7.90;99.90
44447;DHT22;30152;52.066;5.358;2023-02-01T11:21:00;7.60;99.90
44447;DHT22;30152;52.066;5.358;2023-02-01T11:23:27;7.50;99.90
44447;DHT22;30152;52.066;5.358;2023-02-01T11:26:01;7.40;99.90
44447;DHT22;30152;52.066;5.358;2023-02-01T11:28:34;6.90;99.90
44447;DHT22;30152;52.066;5.358;2023-02-01T11:31:03;7.70;99.90
44447;DHT22;30152;52.066;5.358;2023-02-01T11:33:33;7.70;99.90
44447;DHT22;30152;52.066;5.358;2023-02-01T11:36:11;7.90;99.90
44447;DHT22;30152;52.066;5.358;2023-02-01T11:38:38;7.20;99.90
44447;DHT22;30152;52.066;5.358;2023-02-01T11:41:24;7.70;99.90
44447;DHT22;30152;52.066;5.358;2023-02-01T11:43:55;8.60;99.90
44447;DHT22;30152;52.066;5.358;2023-02-01T11:46:33;7.80;99.90
44447;DHT22;30152;52.066;5.358;2023-02-01T11:52:12;7.80;99.90
44447;DHT22;30152;52.066;5.358;2023-02-01T11:55:01;9.00;99.90
44447;DHT22;30152;52.066;5.358;2023-02-01T12:03:30;8.30;99.90
44447;DHT22;30152;52.066;5.358;2023-02-01T12:24:52;9.30;99.90
44447;DHT22;30152;52.066;5.358;2023-02-01T12:31:11;8.20;99.90
44447;DHT22;30152;52.066;5.358;2023-02-01T12:33:53;8.30;99.90
44447;DHT22;30152;52.066;5.358;2023-02-01T12:36:49;8.30;99.90
44447;DHT22;30152;52.066;5.358;2023-02-01T12:39:39;8.30;99.90
44447;DHT22;30152;52.066;5.358;2023-02-01T12:42:37;8.40;99.90
44447;DHT22;30152;52.066;5.358;2023-02-01T12:45:26;8.50;99.90
44447;DHT22;30152;52.066;5.358;2023-02-01T12:47:55;8.30;99.90
44447;DHT22;30152;52.066;5.358;2023-02-01T12:50:47;8.50;99.90
44447;DHT22;30152;52.066;5.358;2023-02-01T12:53:25;10.10;99.90
44447;DHT22;30152;52.066;5.358;2023-02-01T12:55:57;8.40;99.90
44447;DHT22;30152;52.066;5.358;2023-02-01T12:58:47;8.50;99.90
44447;DHT22;30152;52.066;5.358;2023-02-01T13:03:59;8.40;99.90
44447;DHT22;30152;52.066;5.358;2023-02-01T13:06:33;8.40;99.90
44447;DHT22;30152;52.066;5.358;2023-02-01T13:11:51;8.80;99.90
44447;DHT22;30152;52.066;5.358;2023-02-01T13:14:42;8.30;99.90
44447;DHT22;30152;52.066;5.358;2023-02-01T13:17:23;8.30;99.90
44447;DHT22;30152;52.066;5.358;2023-02-01T13:20:06;8.50;99.90
44447;DHT22;30152;52.066;5.358;2023-02-01T13:22:42;8.40;99.90
44447;DHT22;30152;52.066;5.358;2023-02-01T13:25:18;8.40;99.90
44447;DHT22;30152;52.066;5.358;2023-02-01T13:27:46;8.30;99.90
44447;DHT22;30152;52.066;5.358;2023-02-01T13:41:24;8.40;99.90
44447;DHT22;30152;52.066;5.358;2023-02-01T13:44:01;9.50;99.90
44447;DHT22;30152;52.066;5.358;2023-02-01T13:46:28;8.40;99.90
44447;DHT22;30152;52.066;5.358;2023-02-01T13:48:58;8.60;99.90
44447;DHT22;30152;52.066;5.358;2023-02-01T13:51:42;8.90;99.90
44447;DHT22;30152;52.066;5.358;2023-02-01T13:54:25;8.60;99.90
44447;DHT22;30152;52.066;5.358;2023-02-01T13:56:51;8.50;99.90
44447;DHT22;30152;52.066;5.358;2023-02-01T14:08:13;9.20;99.90
44447;DHT22;30152;52.066;5.358;2023-02-01T14:23:55;8.20;99.90
44447;DHT22;30152;52.066;5.358;2023-02-01T14:26:45;8.70;99.90
44447;DHT22;30152;52.066;5.358;2023-02-01T14:29:36;8.70;99.90
44447;DHT22;30152;52.066;5.358;2023-02-01T14:32:18;8.90;99.90
44447;DHT22;30152;52.066;5.358;2023-02-01T14:47:46;8.20;99.90
44447;DHT22;30152;52.066;5.358;2023-02-01T14:55:45;8.70;99.90
44447;DHT22;30152;52.066;5.358;2023-02-01T15:06:24;8.60;99.90
44447;DHT22;30152;52.066;5.358;2023-02-01T15:08:54;8.50;99.90
44447;DHT22;30152;52.066;5.358;2023-02-01T15:13:51;9.60;99.90
44447;DHT22;30152;52.066;5.358;2023-02-01T15:16:21;8.60;99.90
44447;DHT22;30152;52.066;5.358;2023-02-01T15:18:48;8.40;99.90
44447;DHT22;30152;52.066;5.358;2023-02-01T15:21:17;8.40;99.90
44447;DHT22;30152;52.066;5.358;2023-02-01T15:23:43;8.50;99.90
44447;DHT22;30152;52.066;5.358;2023-02-01T15:28:37;8.70;99.90
44447;DHT22;30152;52.066;5.358;2023-02-01T15:31:04;8.50;99.90
44447;DHT22;30152;52.066;5.358;2023-02-01T15:38:37;8.30;99.90
44447;DHT22;30152;52.066;5.358;2023-02-01T15:41:07;8.60;99.90
44447;DHT22;30152;52.066;5.358;2023-02-01T15:44:03;8.50;99.90
44447;DHT22;30152;52.066;5.358;2023-02-01T15:46:33;8.50;99.90
44447;DHT22;30152;52.066;5.358;2023-02-01T15:51:29;8.40;99.90
44447;DHT22;30152;52.066;5.358;2023-02-01T15:54:05;8.60;99.90
44447;DHT22;30152;52.066;5.358;2023-02-01T15:56:37;8.00;99.90
44447;DHT22;30152;52.066;5.358;2023-02-01T15:59:12;8.60;99.90
44447;DHT22;30152;52.066;5.358;2023-02-01T16:01:39;8.50;99.90
44447;DHT22;30152;52.066;5.358;2023-02-01T16:04:21;9.40;99.90
44447;DHT22;30152;52.066;5.358;2023-02-01T16:06:58;8.60;99.90
44447;DHT22;30152;52.066;5.358;2023-02-01T16:09:37;8.40;99.90
44447;DHT22;30152;52.066;5.358;2023-02-01T16:12:17;8.90;99.90
44447;DHT22;30152;52.066;5.358;2023-02-01T16:17:10;8.60;99.90
44447;DHT22;30152;52.066;5.358;2023-02-01T16:19:36;8.70;99.90
44447;DHT22;30152;52.066;5.358;2023-02-01T16:22:02;8.70;99.90
44447;DHT22;30152;52.066;5.358;2023-02-01T16:31:48;8.50;99.90
44447;DHT22;30152;52.066;5.358;2023-02-01T16:34:15;9.00;99.90
44447;DHT22;30152;52.066;5.358;2023-02-01T16:36:47;8.60;99.90
44447;DHT22;30152;52.066;5.358;2023-02-01T16:39:17;8.60;99.90
44447;DHT22;30152;52.066;5.358;2023-02-01T16:41:42;8.90;99.90
44447;DHT22;30152;52.066;5.358;2023-02-01T16:46:35;8.70;99.90
44447;DHT22;30152;52.066;5.358;2023-02-01T16:49:04;8.60;99.90
44447;DHT22;30152;52.066;5.358;2023-02-01T16:51:31;8.80;99.90
44447;DHT22;30152;52.066;5.358;2023-02-01T16:54:01;8.90;99.90
44447;DHT22;30152;52.066;5.358;2023-02-01T19:53:43;8.60;99.90
44447;DHT22;30152;52.066;5.358;2023-02-01T20:01:02;8.90;99.90
44447;DHT22;30152;52.066;5.358;2023-02-01T20:05:55;9.20;99.90
44447;DHT22;30152;52.066;5.358;2023-02-01T20:10:47;8.80;99.90
44447;DHT22;30152;52.066;5.358;2023-02-01T20:18:07;8.80;99.90
44447;DHT22;30152;52.066;5.358;2023-02-01T20:20:33;8.60;99.90
44447;DHT22;30152;52.066;5.358;2023-02-01T20:22:59;9.50;99.90
44447;DHT22;30152;52.066;5.358;2023-02-01T20:25:24;8.30;99.90
44447;DHT22;30152;52.066;5.358;2023-02-01T20:27:50;8.90;99.90
44447;DHT22;30152;52.066;5.358;2023-02-01T20:30:17;8.80;99.90
44447;DHT22;30152;52.066;5.358;2023-02-01T20:32:45;8.80;99.90
44447;DHT22;30152;52.066;5.358;2023-02-01T20:37:37;8.70;99.90
44447;DHT22;30152;52.066;5.358;2023-02-01T20:40:03;8.90;99.90
44447;DHT22;30152;52.066;5.358;2023-02-01T20:44:55;8.80;99.90
44447;DHT22;30152;52.066;5.358;2023-02-01T20:47:21;8.90;99.90
44447;DHT22;30152;52.066;5.358;2023-02-01T20:49:47;9.00;99.90
44447;DHT22;30152;52.066;5.358;2023-02-01T20:52:12;8.70;99.90
44447;DHT22;30152;52.066;5.358;2023-02-01T20:57:04;10.20;99.90
44447;DHT22;30152;52.066;5.358;2023-02-01T20:59:30;9.60;99.90
44447;DHT22;30152;52.066;5.358;2023-02-01T21:04:26;8.70;99.90
44447;DHT22;30152;52.066;5.358;2023-02-01T21:06:55;9.90;99.90
44447;DHT22;30152;52.066;5.358;2023-02-01T21:09:22;9.00;99.90
44447;DHT22;30152;52.066;5.358;2023-02-01T21:14:14;8.70;99.90
44447;DHT22;30152;52.066;5.358;2023-02-01T21:23:58;9.00;99.90
44447;DHT22;30152;52.066;5.358;2023-02-01T21:26:25;8.90;99.90
44447;DHT22;30152;52.066;5.358;2023-02-01T21:28:53;8.90;99.90
44447;DHT22;30152;52.066;5.358;2023-02-01T21:31:19;9.10;99.90
44447;DHT22;30152;52.066;5.358;2023-02-01T21:33:47;8.80;99.90
44447;DHT22;30152;52.066;5.358;2023-02-01T21:36:14;8.90;99.90
44447;DHT22;30152;52.066;5.358;2023-02-01T21:38:47;9.00;99.90
44447;DHT22;30152;52.066;5.358;2023-02-01T21:41:23;9.10;99.90
44447;DHT22;30152;52.066;5.358;2023-02-01T21:44:08;9.00;99.90
44447;DHT22;30152;52.066;5.358;2023-02-01T21:49:01;8.90;99.90
44447;DHT22;30152;52.066;5.358;2023-02-01T21:51:27;8.80;99.90
44447;DHT22;30152;52.066;5.358;2023-02-01T21:56:19;8.80;99.90
44447;DHT22;30152;52.066;5.358;2023-02-01T21:58:44;8.80;99.90
44447;DHT22;30152;52.066;5.358;2023-02-01T22:03:36;8.30;99.90
44447;DHT22;30152;52.066;5.358;2023-02-01T22:10:53;8.80;99.90
44447;DHT22;30152;52.066;5.358;2023-02-01T22:13:19;8.50;99.90
44447;DHT22;30152;52.066;5.358;2023-02-01T22:15:44;8.40;99.90
